Terminal Aerodrome Forecast
Issued by NWS Wichita, KS

Home | Current Version | Previous Version | Text Only | Print | Product List | Glossary On
Versions: 1 2 3 4 5 6 7 8 9 10 11 12 13 14 15 16 17
684
FTUS43 KICT 230530
TAFICT
TAF
KICT 230530Z 2306/2406 VRB05KT P6SM BKN004
     FM230800 VRB03KT 1SM BR BKN003
     FM231500 03005KT P6SM BKN008
     FM231900 05005KT P6SM BKN020
     FM240400 07007KT P6SM BKN008=

USA.gov is the U.S. government's official web portal to all federal, state and local government web resources and services.